sensor_id;sensor_type;location;lat;lon;timestamp;temperature;humidity
3017;DHT22;1518;52.408;13.060;2022-10-04T00:00:40;13.30;99.90
3017;DHT22;1518;52.408;13.060;2022-10-04T00:03:33;13.30;99.90
3017;DHT22;1518;52.408;13.060;2022-10-04T00:06:24;13.30;99.90
3017;DHT22;1518;52.408;13.060;2022-10-04T00:09:15;13.30;99.90
3017;DHT22;1518;52.408;13.060;2022-10-04T00:12:04;13.30;99.90
3017;DHT22;1518;52.408;13.060;2022-10-04T00:14:55;13.30;99.90
3017;DHT22;1518;52.408;13.060;2022-10-04T00:17:59;13.30;99.90
3017;DHT22;1518;52.408;13.060;2022-10-04T00:20:57;13.30;99.90
3017;DHT22;1518;52.408;13.060;2022-10-04T00:23:46;13.30;99.90
3017;DHT22;1518;52.408;13.060;2022-10-04T00:27:09;13.30;99.90
3017;DHT22;1518;52.408;13.060;2022-10-04T00:30:15;13.30;99.90
3017;DHT22;1518;52.408;13.060;2022-10-04T00:33:08;13.30;99.90
3017;DHT22;1518;52.408;13.060;2022-10-04T00:35:56;13.30;99.90
3017;DHT22;1518;52.408;13.060;2022-10-04T00:39:01;13.40;99.90
3017;DHT22;1518;52.408;13.060;2022-10-04T00:41:56;13.30;99.90
3017;DHT22;1518;52.408;13.060;2022-10-04T00:44:49;13.30;99.90
3017;DHT22;1518;52.408;13.060;2022-10-04T00:47:56;13.20;99.90
3017;DHT22;1518;52.408;13.060;2022-10-04T00:50:50;13.20;99.90
3017;DHT22;1518;52.408;13.060;2022-10-04T00:53:47;13.30;99.90
3017;DHT22;1518;52.408;13.060;2022-10-04T00:56:42;13.20;99.90
3017;DHT22;1518;52.408;13.060;2022-10-04T00:59:35;13.20;99.90
3017;DHT22;1518;52.408;13.060;2022-10-04T01:02:28;13.20;99.90
3017;DHT22;1518;52.408;13.060;2022-10-04T01:05:21;13.20;99.90
3017;DHT22;1518;52.408;13.060;2022-10-04T01:08:12;13.30;99.90
3017;DHT22;1518;52.408;13.060;2022-10-04T01:11:05;13.20;99.90
3017;DHT22;1518;52.408;13.060;2022-10-04T01:13:57;13.20;99.90
3017;DHT22;1518;52.408;13.060;2022-10-04T01:16:46;13.30;99.90
3017;DHT22;1518;52.408;13.060;2022-10-04T01:19:34;13.10;99.90
3017;DHT22;1518;52.408;13.060;2022-10-04T01:22:36;13.10;99.90
3017;DHT22;1518;52.408;13.060;2022-10-04T01:25:45;13.10;99.90
3017;DHT22;1518;52.408;13.060;2022-10-04T01:28:33;13.10;99.90
3017;DHT22;1518;52.408;13.060;2022-10-04T01:31:22;13.10;99.90
3017;DHT22;1518;52.408;13.060;2022-10-04T01:34:13;13.00;99.90
3017;DHT22;1518;52.408;13.060;2022-10-04T01:37:02;13.00;99.90
3017;DHT22;1518;52.408;13.060;2022-10-04T01:39:51;13.00;99.90
3017;DHT22;1518;52.408;13.060;2022-10-04T01:42:42;12.90;99.90
3017;DHT22;1518;52.408;13.060;2022-10-04T01:45:37;12.90;99.90
3017;DHT22;1518;52.408;13.060;2022-10-04T01:48:32;12.80;99.90
3017;DHT22;1518;52.408;13.060;2022-10-04T01:51:24;12.90;99.90
3017;DHT22;1518;52.408;13.060;2022-10-04T01:54:17;12.90;99.90
3017;DHT22;1518;52.408;13.060;2022-10-04T01:57:12;12.80;99.90
3017;DHT22;1518;52.408;13.060;2022-10-04T02:00:05;12.80;99.90
3017;DHT22;1518;52.408;13.060;2022-10-04T02:02:56;12.70;99.90
3017;DHT22;1518;52.408;13.060;2022-10-04T02:05:49;12.70;99.90
3017;DHT22;1518;52.408;13.060;2022-10-04T02:08:43;12.70;99.90
3017;DHT22;1518;52.408;13.060;2022-10-04T02:11:33;12.70;99.90
3017;DHT22;1518;52.408;13.060;2022-10-04T02:14:31;12.80;99.90
3017;DHT22;1518;52.408;13.060;2022-10-04T02:17:21;12.80;99.90
3017;DHT22;1518;52.408;13.060;2022-10-04T02:20:13;12.80;99.90
3017;DHT22;1518;52.408;13.060;2022-10-04T02:23:02;12.80;99.90
3017;DHT22;1518;52.408;13.060;2022-10-04T02:25:50;12.80;99.90
3017;DHT22;1518;52.408;13.060;2022-10-04T02:28:38;12.80;99.90
3017;DHT22;1518;52.408;13.060;2022-10-04T02:31:28;12.80;99.90
3017;DHT22;1518;52.408;13.060;2022-10-04T02:34:49;12.90;99.90
3017;DHT22;1518;52.408;13.060;2022-10-04T02:37:38;12.80;99.90
3017;DHT22;1518;52.408;13.060;2022-10-04T02:40:28;12.80;99.90
3017;DHT22;1518;52.408;13.060;2022-10-04T02:43:21;12.80;99.90
3017;DHT22;1518;52.408;13.060;2022-10-04T02:46:13;12.70;99.90
3017;DHT22;1518;52.408;13.060;2022-10-04T02:49:19;12.80;99.90
3017;DHT22;1518;52.408;13.060;2022-10-04T02:52:10;12.70;99.90
3017;DHT22;1518;52.408;13.060;2022-10-04T02:55:04;12.70;99.90
3017;DHT22;1518;52.408;13.060;2022-10-04T02:57:54;12.70;99.90
3017;DHT22;1518;52.408;13.060;2022-10-04T03:00:48;12.70;99.90
3017;DHT22;1518;52.408;13.060;2022-10-04T03:03:38;12.60;99.90
3017;DHT22;1518;52.408;13.060;2022-10-04T03:06:31;12.50;99.90
3017;DHT22;1518;52.408;13.060;2022-10-04T03:09:21;12.60;99.90
3017;DHT22;1518;52.408;13.060;2022-10-04T03:12:15;12.40;99.90
3017;DHT22;1518;52.408;13.060;2022-10-04T03:15:06;12.50;99.90
3017;DHT22;1518;52.408;13.060;2022-10-04T03:17:54;12.40;99.90
3017;DHT22;1518;52.408;13.060;2022-10-04T03:20:43;12.50;99.90
3017;DHT22;1518;52.408;13.060;2022-10-04T03:23:33;12.50;99.90
3017;DHT22;1518;52.408;13.060;2022-10-04T03:26:27;12.40;99.90
3017;DHT22;1518;52.408;13.060;2022-10-04T03:29:17;12.40;99.90
3017;DHT22;1518;52.408;13.060;2022-10-04T03:32:05;12.40;99.90
3017;DHT22;1518;52.408;13.060;2022-10-04T03:34:56;12.40;99.90
3017;DHT22;1518;52.408;13.060;2022-10-04T03:37:45;12.40;99.90
3017;DHT22;1518;52.408;13.060;2022-10-04T03:40:35;12.60;99.90
3017;DHT22;1518;52.408;13.060;2022-10-04T03:43:27;12.40;99.90
3017;DHT22;1518;52.408;13.060;2022-10-04T03:46:18;12.30;99.90
3017;DHT22;1518;52.408;13.060;2022-10-04T03:49:11;12.30;99.90
3017;DHT22;1518;52.408;13.060;2022-10-04T03:52:03;12.20;99.90
3017;DHT22;1518;52.408;13.060;2022-10-04T03:54:53;12.20;99.90
3017;DHT22;1518;52.408;13.060;2022-10-04T03:57:45;12.30;99.90
3017;DHT22;1518;52.408;13.060;2022-10-04T04:00:37;12.30;99.90
3017;DHT22;1518;52.408;13.060;2022-10-04T04:03:28;12.30;99.90
3017;DHT22;1518;52.408;13.060;2022-10-04T04:06:22;12.30;99.90
3017;DHT22;1518;52.408;13.060;2022-10-04T04:09:18;12.40;99.90
3017;DHT22;1518;52.408;13.060;2022-10-04T04:12:12;12.50;99.90
3017;DHT22;1518;52.408;13.060;2022-10-04T04:15:03;12.50;99.90
3017;DHT22;1518;52.408;13.060;2022-10-04T04:17:54;12.50;99.90
3017;DHT22;1518;52.408;13.060;2022-10-04T04:20:42;12.40;99.90
3017;DHT22;1518;52.408;13.060;2022-10-04T04:23:33;12.40;99.90
3017;DHT22;1518;52.408;13.060;2022-10-04T04:26:27;12.50;99.90
3017;DHT22;1518;52.408;13.060;2022-10-04T04:29:21;12.30;99.90
3017;DHT22;1518;52.408;13.060;2022-10-04T04:32:15;12.20;99.90
3017;DHT22;1518;52.408;13.060;2022-10-04T04:35:06;12.10;99.90
3017;DHT22;1518;52.408;13.060;2022-10-04T04:38:16;12.00;99.90
3017;DHT22;1518;52.408;13.060;2022-10-04T04:41:08;12.00;99.90
3017;DHT22;1518;52.408;13.060;2022-10-04T04:43:57;11.90;99.90
3017;DHT22;1518;52.408;13.060;2022-10-04T04:46:45;11.90;99.90
3017;DHT22;1518;52.408;13.060;2022-10-04T04:49:37;11.90;99.90
3017;DHT22;1518;52.408;13.060;2022-10-04T04:52:28;12.00;99.90
3017;DHT22;1518;52.408;13.060;2022-10-04T04:55:18;12.00;99.90
3017;DHT22;1518;52.408;13.060;2022-10-04T04:58:07;12.10;99.90
3017;DHT22;1518;52.408;13.060;2022-10-04T05:01:00;12.20;99.90
3017;DHT22;1518;52.408;13.060;2022-10-04T05:04:00;12.20;99.90
3017;DHT22;1518;52.408;13.060;2022-10-04T05:07:00;12.30;99.90
3017;DHT22;1518;52.408;13.060;2022-10-04T05:09:49;12.30;99.90
3017;DHT22;1518;52.408;13.060;2022-10-04T05:12:37;12.40;99.90
3017;DHT22;1518;52.408;13.060;2022-10-04T05:15:26;12.30;99.90
3017;DHT22;1518;52.408;13.060;2022-10-04T05:18:28;12.40;99.90
3017;DHT22;1518;52.408;13.060;2022-10-04T05:21:27;12.40;99.90
3017;DHT22;1518;52.408;13.060;2022-10-04T05:24:21;12.50;99.90
3017;DHT22;1518;52.408;13.060;2022-10-04T05:27:14;12.50;99.90
3017;DHT22;1518;52.408;13.060;2022-10-04T05:30:06;12.40;99.90
3017;DHT22;1518;52.408;13.060;2022-10-04T05:32:59;12.50;99.90
3017;DHT22;1518;52.408;13.060;2022-10-04T05:36:01;12.60;99.90
3017;DHT22;1518;52.408;13.060;2022-10-04T05:39:01;12.60;99.90
3017;DHT22;1518;52.408;13.060;2022-10-04T05:41:58;12.60;99.90
3017;DHT22;1518;52.408;13.060;2022-10-04T05:44:49;12.60;99.90
3017;DHT22;1518;52.408;13.060;2022-10-04T05:47:39;12.60;99.90
3017;DHT22;1518;52.408;13.060;2022-10-04T05:50:32;12.60;99.90
3017;DHT22;1518;52.408;13.060;2022-10-04T05:53:29;12.70;99.90
3017;DHT22;1518;52.408;13.060;2022-10-04T05:56:48;12.70;99.90
3017;DHT22;1518;52.408;13.060;2022-10-04T05:59:55;12.70;99.90
3017;DHT22;1518;52.408;13.060;2022-10-04T06:03:14;12.70;99.90
3017;DHT22;1518;52.408;13.060;2022-10-04T06:06:15;12.70;99.90
3017;DHT22;1518;52.408;13.060;2022-10-04T06:09:10;12.80;99.90
3017;DHT22;1518;52.408;13.060;2022-10-04T06:12:05;12.90;99.90
3017;DHT22;1518;52.408;13.060;2022-10-04T06:15:07;13.00;99.90
3017;DHT22;1518;52.408;13.060;2022-10-04T06:18:14;12.90;99.90
3017;DHT22;1518;52.408;13.060;2022-10-04T06:21:17;13.00;99.90
3017;DHT22;1518;52.408;13.060;2022-10-04T06:24:10;12.90;99.90
3017;DHT22;1518;52.408;13.060;2022-10-04T06:27:09;13.10;99.90
3017;DHT22;1518;52.408;13.060;2022-10-04T06:30:03;13.20;99.90
3017;DHT22;1518;52.408;13.060;2022-10-04T06:33:07;13.20;99.90
3017;DHT22;1518;52.408;13.060;2022-10-04T06:36:26;13.20;99.90
3017;DHT22;1518;52.408;13.060;2022-10-04T06:39:38;13.20;99.90
3017;DHT22;1518;52.408;13.060;2022-10-04T06:42:46;13.20;99.90
3017;DHT22;1518;52.408;13.060;2022-10-04T06:45:50;13.30;99.90
3017;DHT22;1518;52.408;13.060;2022-10-04T06:49:03;13.30;99.90
3017;DHT22;1518;52.408;13.060;2022-10-04T06:52:25;13.30;99.90
3017;DHT22;1518;52.408;13.060;2022-10-04T06:55:30;13.30;99.90
3017;DHT22;1518;52.408;13.060;2022-10-04T06:58:36;13.60;99.90
3017;DHT22;1518;52.408;13.060;2022-10-04T07:01:33;13.50;99.90
3017;DHT22;1518;52.408;13.060;2022-10-04T07:04:29;13.60;99.90
3017;DHT22;1518;52.408;13.060;2022-10-04T07:07:40;13.60;99.90
3017;DHT22;1518;52.408;13.060;2022-10-04T07:10:38;13.60;99.90
3017;DHT22;1518;52.408;13.060;2022-10-04T07:13:35;13.60;99.90
3017;DHT22;1518;52.408;13.060;2022-10-04T07:16:31;13.70;99.90
3017;DHT22;1518;52.408;13.060;2022-10-04T07:19:29;13.70;99.90
3017;DHT22;1518;52.408;13.060;2022-10-04T07:22:22;13.70;99.90
3017;DHT22;1518;52.408;13.060;2022-10-04T07:25:18;13.80;99.90
3017;DHT22;1518;52.408;13.060;2022-10-04T07:28:11;13.80;99.90
3017;DHT22;1518;52.408;13.060;2022-10-04T07:31:22;13.80;99.90
3017;DHT22;1518;52.408;13.060;2022-10-04T07:34:16;13.90;99.90
3017;DHT22;1518;52.408;13.060;2022-10-04T07:37:09;14.00;99.90
3017;DHT22;1518;52.408;13.060;2022-10-04T07:40:02;14.10;99.90
3017;DHT22;1518;52.408;13.060;2022-10-04T07:42:54;14.10;99.90
3017;DHT22;1518;52.408;13.060;2022-10-04T07:45:46;14.20;99.90
3017;DHT22;1518;52.408;13.060;2022-10-04T07:48:39;14.20;99.90
3017;DHT22;1518;52.408;13.060;2022-10-04T07:51:35;14.10;99.90
3017;DHT22;1518;52.408;13.060;2022-10-04T07:54:35;14.10;99.90
3017;DHT22;1518;52.408;13.060;2022-10-04T07:57:37;14.10;99.90
3017;DHT22;1518;52.408;13.060;2022-10-04T08:00:32;14.20;99.90
3017;DHT22;1518;52.408;13.060;2022-10-04T08:03:38;14.40;99.90
3017;DHT22;1518;52.408;13.060;2022-10-04T08:06:33;14.60;99.90
3017;DHT22;1518;52.408;13.060;2022-10-04T08:09:39;14.90;99.90
3017;DHT22;1518;52.408;13.060;2022-10-04T08:12:37;15.20;99.90
3017;DHT22;1518;52.408;13.060;2022-10-04T08:15:34;15.20;99.90
3017;DHT22;1518;52.408;13.060;2022-10-04T08:18:35;15.10;99.90
3017;DHT22;1518;52.408;13.060;2022-10-04T08:21:32;15.10;99.90
3017;DHT22;1518;52.408;13.060;2022-10-04T08:24:31;15.20;99.90
3017;DHT22;1518;52.408;13.060;2022-10-04T08:27:29;15.10;99.90
3017;DHT22;1518;52.408;13.060;2022-10-04T08:30:19;15.10;99.90
3017;DHT22;1518;52.408;13.060;2022-10-04T08:33:11;15.10;99.90
3017;DHT22;1518;52.408;13.060;2022-10-04T08:36:13;15.10;99.90
3017;DHT22;1518;52.408;13.060;2022-10-04T08:39:18;15.30;99.90
3017;DHT22;1518;52.408;13.060;2022-10-04T08:42:50;15.20;99.90
3017;DHT22;1518;52.408;13.060;2022-10-04T08:46:25;15.30;99.90
3017;DHT22;1518;52.408;13.060;2022-10-04T08:49:50;15.30;99.90
3017;DHT22;1518;52.408;13.060;2022-10-04T08:52:53;15.30;99.90
3017;DHT22;1518;52.408;13.060;2022-10-04T08:55:59;15.40;99.90
3017;DHT22;1518;52.408;13.060;2022-10-04T08:59:16;15.60;99.90
3017;DHT22;1518;52.408;13.060;2022-10-04T09:02:34;15.50;99.90
3017;DHT22;1518;52.408;13.060;2022-10-04T09:05:33;15.70;99.90
3017;DHT22;1518;52.408;13.060;2022-10-04T09:15:52;15.90;99.90
3017;DHT22;1518;52.408;13.060;2022-10-04T09:18:58;16.10;99.90
3017;DHT22;1518;52.408;13.060;2022-10-04T09:22:16;16.20;99.90
3017;DHT22;1518;52.408;13.060;2022-10-04T09:25:22;16.10;99.90
3017;DHT22;1518;52.408;13.060;2022-10-04T09:28:20;16.00;99.90
3017;DHT22;1518;52.408;13.060;2022-10-04T09:34:40;15.90;99.90
3017;DHT22;1518;52.408;13.060;2022-10-04T09:37:41;15.70;99.90
3017;DHT22;1518;52.408;13.060;2022-10-04T09:40:49;15.80;99.90
3017;DHT22;1518;52.408;13.060;2022-10-04T09:44:13;15.80;99.90
3017;DHT22;1518;52.408;13.060;2022-10-04T09:54:08;16.00;99.90
3017;DHT22;1518;52.408;13.060;2022-10-04T09:57:07;16.40;99.90
3017;DHT22;1518;52.408;13.060;2022-10-04T10:00:07;16.40;99.90
3017;DHT22;1518;52.408;13.060;2022-10-04T10:06:33;16.50;99.90
3017;DHT22;1518;52.408;13.060;2022-10-04T10:09:28;16.50;99.90
3017;DHT22;1518;52.408;13.060;2022-10-04T10:12:55;16.60;99.90
3017;DHT22;1518;52.408;13.060;2022-10-04T10:16:09;16.70;99.90
3017;DHT22;1518;52.408;13.060;2022-10-04T10:19:10;16.90;99.90
3017;DHT22;1518;52.408;13.060;2022-10-04T10:22:14;17.00;99.90
3017;DHT22;1518;52.408;13.060;2022-10-04T10:25:20;17.10;99.90
3017;DHT22;1518;52.408;13.060;2022-10-04T10:28:29;17.10;99.90
3017;DHT22;1518;52.408;13.060;2022-10-04T10:31:34;17.20;99.90
3017;DHT22;1518;52.408;13.060;2022-10-04T10:34:55;17.40;99.90
3017;DHT22;1518;52.408;13.060;2022-10-04T10:38:01;17.70;99.90
3017;DHT22;1518;52.408;13.060;2022-10-04T10:41:08;18.00;99.90
3017;DHT22;1518;52.408;13.060;2022-10-04T10:44:14;18.30;99.90
3017;DHT22;1518;52.408;13.060;2022-10-04T10:47:16;18.10;99.90
3017;DHT22;1518;52.408;13.060;2022-10-04T10:50:26;17.90;99.90
3017;DHT22;1518;52.408;13.060;2022-10-04T10:56:51;17.80;99.90
3017;DHT22;1518;52.408;13.060;2022-10-04T11:00:19;18.00;99.90
3017;DHT22;1518;52.408;13.060;2022-10-04T11:03:43;18.20;99.90
3017;DHT22;1518;52.408;13.060;2022-10-04T11:07:00;18.30;99.90
3017;DHT22;1518;52.408;13.060;2022-10-04T11:10:14;18.50;99.90
3017;DHT22;1518;52.408;13.060;2022-10-04T11:16:59;18.90;99.90
3017;DHT22;1518;52.408;13.060;2022-10-04T11:23:47;18.50;99.90
3017;DHT22;1518;52.408;13.060;2022-10-04T11:27:08;18.50;99.90
3017;DHT22;1518;52.408;13.060;2022-10-04T11:30:12;18.30;99.90
3017;DHT22;1518;52.408;13.060;2022-10-04T11:36:31;18.60;99.90
3017;DHT22;1518;52.408;13.060;2022-10-04T11:39:36;18.70;99.90
3017;DHT22;1518;52.408;13.060;2022-10-04T11:42:57;18.80;99.90
3017;DHT22;1518;52.408;13.060;2022-10-04T11:46:10;18.90;99.90
3017;DHT22;1518;52.408;13.060;2022-10-04T11:49:22;18.90;99.90
3017;DHT22;1518;52.408;13.060;2022-10-04T11:55:49;18.50;99.90
3017;DHT22;1518;52.408;13.060;2022-10-04T11:58:51;18.50;99.90
3017;DHT22;1518;52.408;13.060;2022-10-04T12:02:12;18.60;99.90
3017;DHT22;1518;52.408;13.060;2022-10-04T12:05:26;18.50;99.90
3017;DHT22;1518;52.408;13.060;2022-10-04T12:08:37;18.50;99.90
3017;DHT22;1518;52.408;13.060;2022-10-04T12:11:51;18.40;99.90
3017;DHT22;1518;52.408;13.060;2022-10-04T12:15:10;18.40;99.90
3017;DHT22;1518;52.408;13.060;2022-10-04T12:18:25;18.40;99.90
3017;DHT22;1518;52.408;13.060;2022-10-04T12:21:44;18.60;99.90
3017;DHT22;1518;52.408;13.060;2022-10-04T12:25:00;18.90;99.90
3017;DHT22;1518;52.408;13.060;2022-10-04T12:28:05;18.90;99.90
3017;DHT22;1518;52.408;13.060;2022-10-04T12:31:12;18.80;99.90
3017;DHT22;1518;52.408;13.060;2022-10-04T12:34:14;18.90;99.90
3017;DHT22;1518;52.408;13.060;2022-10-04T12:37:15;19.10;99.90
3017;DHT22;1518;52.408;13.060;2022-10-04T12:40:23;19.00;99.90
3017;DHT22;1518;52.408;13.060;2022-10-04T12:43:17;19.10;99.90
3017;DHT22;1518;52.408;13.060;2022-10-04T12:46:20;19.30;99.90
3017;DHT22;1518;52.408;13.060;2022-10-04T12:49:20;19.60;99.90
3017;DHT22;1518;52.408;13.060;2022-10-04T12:52:17;19.90;99.90
3017;DHT22;1518;52.408;13.060;2022-10-04T12:55:19;20.20;99.90
3017;DHT22;1518;52.408;13.060;2022-10-04T12:58:15;20.50;99.90
3017;DHT22;1518;52.408;13.060;2022-10-04T13:01:16;20.40;99.90
3017;DHT22;1518;52.408;13.060;2022-10-04T13:04:25;20.50;99.90
3017;DHT22;1518;52.408;13.060;2022-10-04T13:07:29;20.60;99.90
3017;DHT22;1518;52.408;13.060;2022-10-04T13:10:40;20.70;99.90
3017;DHT22;1518;52.408;13.060;2022-10-04T13:13:50;21.00;99.90
3017;DHT22;1518;52.408;13.060;2022-10-04T13:16:50;21.00;99.90
3017;DHT22;1518;52.408;13.060;2022-10-04T13:20:14;20.80;99.90
3017;DHT22;1518;52.408;13.060;2022-10-04T13:23:12;20.60;99.90
3017;DHT22;1518;52.408;13.060;2022-10-04T13:26:11;20.30;99.90
3017;DHT22;1518;52.408;13.060;2022-10-04T13:29:05;20.10;99.90
3017;DHT22;1518;52.408;13.060;2022-10-04T13:32:04;19.90;99.90
3017;DHT22;1518;52.408;13.060;2022-10-04T13:35:04;20.10;99.90
3017;DHT22;1518;52.408;13.060;2022-10-04T13:38:12;21.10;99.90
3017;DHT22;1518;52.408;13.060;2022-10-04T13:41:19;22.10;99.90
3017;DHT22;1518;52.408;13.060;2022-10-04T13:44:34;23.00;99.90
3017;DHT22;1518;52.408;13.060;2022-10-04T13:47:43;23.20;99.90
3017;DHT22;1518;52.408;13.060;2022-10-04T13:50:42;22.80;99.90
3017;DHT22;1518;52.408;13.060;2022-10-04T13:53:36;22.40;99.90
3017;DHT22;1518;52.408;13.060;2022-10-04T13:57:00;21.70;99.90
3017;DHT22;1518;52.408;13.060;2022-10-04T13:59:57;21.10;99.90
3017;DHT22;1518;52.408;13.060;2022-10-04T14:06:23;20.40;99.90
3017;DHT22;1518;52.408;13.060;2022-10-04T14:09:33;20.40;99.90
3017;DHT22;1518;52.408;13.060;2022-10-04T14:12:39;21.40;99.90
3017;DHT22;1518;52.408;13.060;2022-10-04T14:15:45;23.00;99.90
3017;DHT22;1518;52.408;13.060;2022-10-04T14:19:05;23.90;99.90
3017;DHT22;1518;52.408;13.060;2022-10-04T14:22:18;25.00;99.90
3017;DHT22;1518;52.408;13.060;2022-10-04T14:25:47;25.30;99.90
3017;DHT22;1518;52.408;13.060;2022-10-04T14:29:14;26.40;99.90
3017;DHT22;1518;52.408;13.060;2022-10-04T14:32:45;27.40;99.90
3017;DHT22;1518;52.408;13.060;2022-10-04T14:35:44;26.50;99.90
3017;DHT22;1518;52.408;13.060;2022-10-04T14:38:47;24.90;99.90
3017;DHT22;1518;52.408;13.060;2022-10-04T14:45:20;23.10;99.90
3017;DHT22;1518;52.408;13.060;2022-10-04T14:48:40;22.80;99.90
3017;DHT22;1518;52.408;13.060;2022-10-04T14:54:53;22.60;99.90
3017;DHT22;1518;52.408;13.060;2022-10-04T14:58:05;21.90;99.90
3017;DHT22;1518;52.408;13.060;2022-10-04T15:01:17;21.20;99.90
3017;DHT22;1518;52.408;13.060;2022-10-04T15:04:13;20.70;99.90
3017;DHT22;1518;52.408;13.060;2022-10-04T15:07:17;20.30;99.90
3017;DHT22;1518;52.408;13.060;2022-10-04T15:10:11;20.00;99.90
3017;DHT22;1518;52.408;13.060;2022-10-04T15:13:02;19.70;99.90
3017;DHT22;1518;52.408;13.060;2022-10-04T15:16:05;19.50;99.90
3017;DHT22;1518;52.408;13.060;2022-10-04T15:19:04;19.30;99.90
3017;DHT22;1518;52.408;13.060;2022-10-04T15:22:03;19.10;99.90
3017;DHT22;1518;52.408;13.060;2022-10-04T15:24:54;19.00;99.90
3017;DHT22;1518;52.408;13.060;2022-10-04T15:27:52;18.90;99.90
3017;DHT22;1518;52.408;13.060;2022-10-04T15:30:49;18.60;99.90
3017;DHT22;1518;52.408;13.060;2022-10-04T15:33:44;18.50;99.90
3017;DHT22;1518;52.408;13.060;2022-10-04T15:36:57;18.20;99.90
3017;DHT22;1518;52.408;13.060;2022-10-04T15:40:02;18.20;99.90
3017;DHT22;1518;52.408;13.060;2022-10-04T15:43:22;18.10;99.90
3017;DHT22;1518;52.408;13.060;2022-10-04T15:46:36;17.90;99.90
3017;DHT22;1518;52.408;13.060;2022-10-04T15:49:41;17.80;99.90
3017;DHT22;1518;52.408;13.060;2022-10-04T15:53:06;17.70;99.90
3017;DHT22;1518;52.408;13.060;2022-10-04T15:56:07;17.50;99.90
3017;DHT22;1518;52.408;13.060;2022-10-04T15:59:33;17.50;99.90
3017;DHT22;1518;52.408;13.060;2022-10-04T16:02:43;17.40;99.90
3017;DHT22;1518;52.408;13.060;2022-10-04T16:05:37;17.30;99.90
3017;DHT22;1518;52.408;13.060;2022-10-04T16:08:44;17.20;99.90
3017;DHT22;1518;52.408;13.060;2022-10-04T16:11:45;17.00;99.90
3017;DHT22;1518;52.408;13.060;2022-10-04T16:14:59;17.00;99.90
3017;DHT22;1518;52.408;13.060;2022-10-04T16:21:26;16.70;99.90
3017;DHT22;1518;52.408;13.060;2022-10-04T16:24:38;16.60;99.90
3017;DHT22;1518;52.408;13.060;2022-10-04T16:27:41;16.40;99.90
3017;DHT22;1518;52.408;13.060;2022-10-04T16:30:36;16.20;99.90
3017;DHT22;1518;52.408;13.060;2022-10-04T16:33:31;16.10;99.90
3017;DHT22;1518;52.408;13.060;2022-10-04T16:36:24;15.90;99.90
3017;DHT22;1518;52.408;13.060;2022-10-04T16:39:31;15.80;99.90
3017;DHT22;1518;52.408;13.060;2022-10-04T16:42:51;15.60;99.90
3017;DHT22;1518;52.408;13.060;2022-10-04T16:46:02;15.50;99.90
3017;DHT22;1518;52.408;13.060;2022-10-04T16:48:54;15.40;99.90
3017;DHT22;1518;52.408;13.060;2022-10-04T16:51:52;15.30;99.90
3017;DHT22;1518;52.408;13.060;2022-10-04T16:55:00;15.20;99.90
3017;DHT22;1518;52.408;13.060;2022-10-04T17:01:54;14.90;99.90
3017;DHT22;1518;52.408;13.060;2022-10-04T17:04:51;14.80;99.90
3017;DHT22;1518;52.408;13.060;2022-10-04T17:07:56;14.60;99.90
3017;DHT22;1518;52.408;13.060;2022-10-04T17:11:10;14.60;99.90
3017;DHT22;1518;52.408;13.060;2022-10-04T17:14:05;14.50;99.90
3017;DHT22;1518;52.408;13.060;2022-10-04T17:17:20;14.40;99.90
3017;DHT22;1518;52.408;13.060;2022-10-04T17:20:18;14.30;99.90
3017;DHT22;1518;52.408;13.060;2022-10-04T17:23:21;14.10;99.90
3017;DHT22;1518;52.408;13.060;2022-10-04T17:26:24;14.10;99.90
3017;DHT22;1518;52.408;13.060;2022-10-04T17:29:27;14.00;99.90
3017;DHT22;1518;52.408;13.060;2022-10-04T17:32:23;13.90;99.90
3017;DHT22;1518;52.408;13.060;2022-10-04T17:35:30;13.90;99.90
3017;DHT22;1518;52.408;13.060;2022-10-04T17:38:32;13.80;99.90
3017;DHT22;1518;52.408;13.060;2022-10-04T17:41:31;13.70;99.90
3017;DHT22;1518;52.408;13.060;2022-10-04T17:44:30;13.70;99.90
3017;DHT22;1518;52.408;13.060;2022-10-04T17:47:26;13.60;99.90
3017;DHT22;1518;52.408;13.060;2022-10-04T17:50:43;13.60;99.90
3017;DHT22;1518;52.408;13.060;2022-10-04T17:53:54;13.50;99.90
3017;DHT22;1518;52.408;13.060;2022-10-04T17:57:12;13.50;99.90
3017;DHT22;1518;52.408;13.060;2022-10-04T18:00:06;13.50;99.90
3017;DHT22;1518;52.408;13.060;2022-10-04T18:03:09;13.40;99.90
3017;DHT22;1518;52.408;13.060;2022-10-04T18:06:03;13.40;99.90
3017;DHT22;1518;52.408;13.060;2022-10-04T18:08:59;13.30;99.90
3017;DHT22;1518;52.408;13.060;2022-10-04T18:11:50;13.30;99.90
3017;DHT22;1518;52.408;13.060;2022-10-04T18:14:54;13.20;99.90
3017;DHT22;1518;52.408;13.060;2022-10-04T18:17:47;13.20;99.90
3017;DHT22;1518;52.408;13.060;2022-10-04T18:20:39;13.20;99.90
3017;DHT22;1518;52.408;13.060;2022-10-04T18:23:35;13.10;99.90
3017;DHT22;1518;52.408;13.060;2022-10-04T18:26:27;13.00;99.90
3017;DHT22;1518;52.408;13.060;2022-10-04T18:29:18;13.00;99.90
3017;DHT22;1518;52.408;13.060;2022-10-04T18:32:33;12.90;99.90
3017;DHT22;1518;52.408;13.060;2022-10-04T18:35:24;12.90;99.90
3017;DHT22;1518;52.408;13.060;2022-10-04T18:38:20;12.90;99.90
3017;DHT22;1518;52.408;13.060;2022-10-04T18:41:16;12.80;99.90
3017;DHT22;1518;52.408;13.060;2022-10-04T18:44:12;12.80;99.90
3017;DHT22;1518;52.408;13.060;2022-10-04T18:47:01;12.80;99.90
3017;DHT22;1518;52.408;13.060;2022-10-04T18:50:00;12.70;99.90
3017;DHT22;1518;52.408;13.060;2022-10-04T18:53:25;12.70;99.90
3017;DHT22;1518;52.408;13.060;2022-10-04T18:56:18;12.70;99.90
3017;DHT22;1518;52.408;13.060;2022-10-04T18:59:12;12.60;99.90
3017;DHT22;1518;52.408;13.060;2022-10-04T19:02:28;12.60;99.90
3017;DHT22;1518;52.408;13.060;2022-10-04T19:05:25;12.60;99.90
3017;DHT22;1518;52.408;13.060;2022-10-04T19:08:32;12.60;99.90
3017;DHT22;1518;52.408;13.060;2022-10-04T19:11:27;12.60;99.90
3017;DHT22;1518;52.408;13.060;2022-10-04T19:14:25;12.50;99.90
3017;DHT22;1518;52.408;13.060;2022-10-04T19:17:23;12.50;99.90
3017;DHT22;1518;52.408;13.060;2022-10-04T19:20:17;12.50;99.90
3017;DHT22;1518;52.408;13.060;2022-10-04T19:23:18;12.40;99.90
3017;DHT22;1518;52.408;13.060;2022-10-04T19:26:13;12.40;99.90
3017;DHT22;1518;52.408;13.060;2022-10-04T19:29:28;12.40;99.90
3017;DHT22;1518;52.408;13.060;2022-10-04T19:32:26;12.40;99.90
3017;DHT22;1518;52.408;13.060;2022-10-04T19:35:24;12.50;99.90
3017;DHT22;1518;52.408;13.060;2022-10-04T19:38:32;12.50;99.90
3017;DHT22;1518;52.408;13.060;2022-10-04T19:41:37;12.50;99.90
3017;DHT22;1518;52.408;13.060;2022-10-04T19:44:34;12.40;99.90
3017;DHT22;1518;52.408;13.060;2022-10-04T19:47:38;12.50;99.90
3017;DHT22;1518;52.408;13.060;2022-10-04T19:50:29;12.40;99.90
3017;DHT22;1518;52.408;13.060;2022-10-04T19:53:24;12.40;99.90
3017;DHT22;1518;52.408;13.060;2022-10-04T19:56:17;12.40;99.90
3017;DHT22;1518;52.408;13.060;2022-10-04T19:59:12;12.40;99.90
3017;DHT22;1518;52.408;13.060;2022-10-04T20:02:07;12.30;99.90
3017;DHT22;1518;52.408;13.060;2022-10-04T20:04:56;12.40;99.90
3017;DHT22;1518;52.408;13.060;2022-10-04T20:07:47;12.30;99.90
3017;DHT22;1518;52.408;13.060;2022-10-04T20:10:37;12.30;99.90
3017;DHT22;1518;52.408;13.060;2022-10-04T20:13:25;12.30;99.90